createdAt,value
2022-11-19T00:00:51.781Z,3.72
2022-11-19T00:02:56.898Z,3.95
2022-11-19T00:05:03.567Z,4.60
2022-11-19T00:07:08.359Z,3.95
2022-11-19T00:09:14.594Z,4.18
2022-11-19T00:11:44.788Z,4.30
2022-11-19T00:13:50.504Z,4.50
2022-11-19T00:15:55.661Z,4.85
2022-11-19T00:18:00.839Z,4.90
2022-11-19T00:22:10.142Z,5.13
2022-11-19T00:24:14.880Z,4.93
2022-11-19T00:26:22.266Z,4.90
2022-11-19T00:28:27.144Z,5.05
2022-11-19T00:30:47.479Z,5.00
2022-11-19T00:32:53.090Z,5.05
2022-11-19T00:34:57.876Z,5.20
2022-11-19T00:37:02.634Z,5.60
2022-11-19T00:39:07.559Z,5.35
2022-11-19T00:41:12.817Z,5.10
2022-11-19T00:45:37.178Z,5.00
2022-11-19T00:47:42.026Z,5.15
2022-11-19T00:49:46.770Z,4.55
2022-11-19T00:51:51.597Z,5.05
2022-11-19T00:53:56.846Z,4.82
2022-11-19T00:58:07.627Z,5.75
2022-11-19T01:00:16.834Z,6.30
2022-11-19T01:02:21.584Z,5.32
2022-11-19T01:04:26.437Z,5.40
2022-11-19T01:06:31.263Z,5.30
2022-11-19T01:08:36.057Z,5.85
2022-11-19T01:10:40.859Z,6.65
2022-11-19T01:13:00.266Z,6.18
2022-11-19T01:15:05.003Z,6.10
2022-11-19T01:17:12.915Z,6.22
2022-11-19T01:19:18.289Z,6.25
2022-11-19T01:21:25.330Z,6.22
2022-11-19T01:23:30.143Z,7.03
2022-11-19T01:25:35.077Z,7.25
2022-11-19T01:27:39.844Z,6.72
2022-11-19T01:29:44.643Z,7.95
2022-11-19T01:31:49.548Z,8.77
2022-11-19T01:33:57.352Z,9.65
2022-11-19T01:36:03.598Z,10.00
2022-11-19T01:38:09.005Z,10.52
2022-11-19T01:42:43.599Z,11.10
2022-11-19T01:45:03.918Z,11.88
2022-11-19T01:47:08.685Z,12.02
2022-11-19T01:49:20.014Z,11.55
2022-11-19T01:51:28.337Z,10.68
2022-11-19T01:53:36.505Z,11.68
2022-11-19T01:55:44.920Z,11.80
2022-11-19T01:57:56.908Z,12.32
2022-11-19T02:00:01.756Z,12.45
2022-11-19T02:02:09.164Z,11.95
2022-11-19T02:04:19.447Z,11.60
2022-11-19T02:06:24.610Z,11.05
2022-11-19T02:11:01.434Z,12.30
2022-11-19T02:13:16.403Z,12.07
2022-11-19T02:15:35.181Z,11.75
2022-11-19T02:18:10.028Z,11.95
2022-11-19T02:20:44.661Z,12.70
2022-11-19T02:23:14.056Z,13.88
2022-11-19T02:25:36.755Z,12.32
2022-11-19T02:28:17.414Z,12.52
2022-11-19T02:30:25.040Z,12.23
2022-11-19T02:32:35.807Z,13.80
2022-11-19T02:34:44.563Z,13.50
2022-11-19T02:36:57.614Z,14.13
2022-11-19T02:39:09.030Z,13.00
2022-11-19T02:41:37.598Z,13.00
2022-11-19T02:43:45.270Z,13.82
2022-11-19T02:45:56.510Z,15.02
2022-11-19T02:48:04.923Z,13.43
2022-11-19T02:50:14.613Z,13.90
2022-11-19T02:52:20.958Z,14.95
2022-11-19T02:54:25.703Z,14.13
2022-11-19T02:56:49.895Z,14.57
2022-11-19T02:59:09.204Z,14.10
2022-11-19T03:01:30.007Z,15.05
2022-11-19T03:03:48.297Z,14.05
2022-11-19T03:05:57.331Z,14.10
2022-11-19T03:08:02.710Z,15.27
2022-11-19T03:10:11.582Z,14.90
2022-11-19T03:12:25.602Z,15.63
2022-11-19T03:14:54.262Z,14.88
2022-11-19T03:17:04.066Z,14.57
2022-11-19T03:19:14.640Z,13.90
2022-11-19T03:21:26.275Z,13.82
2022-11-19T03:23:36.892Z,14.48
2022-11-19T03:25:46.659Z,15.10
2022-11-19T03:27:55.422Z,13.23
2022-11-19T03:30:04.237Z,14.38
2022-11-19T03:32:16.984Z,14.10
2022-11-19T03:34:25.246Z,14.10
2022-11-19T03:36:35.185Z,14.30
2022-11-19T03:38:44.790Z,14.43
2022-11-19T03:40:51.776Z,13.98
2022-11-19T03:42:59.031Z,13.02
2022-11-19T03:45:06.994Z,13.80
2022-11-19T03:47:18.354Z,13.07
2022-11-19T03:49:31.677Z,13.07
2022-11-19T03:51:43.854Z,13.43
2022-11-19T03:53:48.825Z,13.50
2022-11-19T03:55:58.920Z,12.82
2022-11-19T03:58:06.733Z,13.20
2022-11-19T04:00:13.163Z,13.75
2022-11-19T04:02:21.828Z,13.35
2022-11-19T04:04:38.893Z,12.80
2022-11-19T04:06:43.675Z,13.20
2022-11-19T04:08:48.420Z,12.98
2022-11-19T04:10:53.415Z,12.85
2022-11-19T04:12:58.183Z,12.73
2022-11-19T04:15:03.092Z,10.07
2022-11-19T04:17:07.974Z,10.85
2022-11-19T04:19:15.564Z,9.70
2022-11-19T04:21:20.323Z,9.68
2022-11-19T04:23:25.150Z,11.23
2022-11-19T04:25:29.988Z,10.15
2022-11-19T04:27:34.812Z,9.70
2022-11-19T04:29:39.720Z,9.63
2022-11-19T04:31:44.543Z,9.70
2022-11-19T04:33:49.330Z,10.10
2022-11-19T04:35:56.832Z,9.90
2022-11-19T04:38:01.585Z,10.15
2022-11-19T04:40:10.979Z,9.10
2022-11-19T04:42:15.938Z,8.73
2022-11-19T04:44:20.699Z,7.53
2022-11-19T04:46:25.486Z,7.40
2022-11-19T04:48:30.487Z,7.28
2022-11-19T04:50:35.255Z,6.18
2022-11-19T04:52:42.759Z,6.65
2022-11-19T04:54:47.667Z,6.35
2022-11-19T04:56:52.494Z,6.05
2022-11-19T04:58:57.358Z,6.88
2022-11-19T05:01:02.223Z,6.50
2022-11-19T05:03:09.374Z,6.30
2022-11-19T05:05:14.225Z,5.88
2022-11-19T05:07:19.228Z,6.90
2022-11-19T05:11:31.260Z,6.47
2022-11-19T05:13:36.208Z,6.93
2022-11-19T05:15:41.096Z,6.47
2022-11-19T05:17:48.088Z,7.57
2022-11-19T05:19:52.996Z,7.05
2022-11-19T05:21:57.838Z,7.28
2022-11-19T05:24:02.607Z,7.30
2022-11-19T05:26:10.137Z,7.20
2022-11-19T05:28:14.932Z,7.15
2022-11-19T05:30:19.849Z,7.50
2022-11-19T05:32:24.693Z,7.57
2022-11-19T05:34:29.537Z,8.60
2022-11-19T05:36:34.320Z,7.97
2022-11-19T05:38:39.201Z,7.50
2022-11-19T05:40:44.021Z,7.28
2022-11-19T05:42:51.427Z,8.05
2022-11-19T05:44:56.209Z,7.85
2022-11-19T05:47:01.046Z,8.07
2022-11-19T05:49:06.112Z,7.60
2022-11-19T05:51:10.990Z,8.10
2022-11-19T05:53:15.761Z,8.05
2022-11-19T05:55:20.888Z,8.98
2022-11-19T05:59:32.963Z,8.43
2022-11-19T06:01:37.745Z,9.43
2022-11-19T06:03:42.936Z,10.07
2022-11-19T06:07:52.359Z,9.23
2022-11-19T06:09:57.136Z,10.00
2022-11-19T06:12:01.947Z,9.95
2022-11-19T06:14:07.042Z,10.68
2022-11-19T06:16:14.401Z,11.60
2022-11-19T06:18:19.271Z,11.18
2022-11-19T06:20:24.211Z,11.10
2022-11-19T06:22:29.000Z,11.23
2022-11-19T06:24:33.933Z,11.18
2022-11-19T06:26:38.895Z,12.23
2022-11-19T06:28:43.668Z,12.23
2022-11-19T06:30:48.504Z,11.90
2022-11-19T06:32:55.887Z,12.27
2022-11-19T06:35:00.686Z,12.10
2022-11-19T06:37:05.520Z,11.60
2022-11-19T06:39:10.950Z,12.07
2022-11-19T06:41:15.769Z,11.90
2022-11-19T06:43:20.542Z,12.25
2022-11-19T06:45:25.368Z,11.30
2022-11-19T06:47:32.261Z,12.00
2022-11-19T06:49:39.742Z,12.55
2022-11-19T06:51:44.507Z,12.13
2022-11-19T06:53:49.424Z,12.93
2022-11-19T06:55:59.382Z,13.45
2022-11-19T06:58:04.986Z,12.68
2022-11-19T07:00:11.303Z,13.57
2022-11-19T07:02:21.463Z,13.95
2022-11-19T07:04:26.626Z,12.52
2022-11-19T07:06:34.010Z,13.52
2022-11-19T07:08:39.960Z,12.70
2022-11-19T07:10:44.933Z,15.93
2022-11-19T07:12:49.695Z,13.45
2022-11-19T07:14:56.577Z,14.73
2022-11-19T07:17:05.151Z,13.60
2022-11-19T07:19:11.652Z,13.52
2022-11-19T07:21:19.181Z,14.27
2022-11-19T07:23:26.572Z,15.55
2022-11-19T07:25:32.531Z,14.52
2022-11-19T07:27:37.370Z,14.10
2022-11-19T07:29:42.086Z,14.30
2022-11-19T07:31:50.387Z,15.10
2022-11-19T07:33:55.131Z,14.18
2022-11-19T07:35:59.972Z,15.38
2022-11-19T07:38:04.736Z,15.02
2022-11-19T07:40:19.284Z,15.05
2022-11-19T07:42:36.554Z,15.45
2022-11-19T07:44:47.928Z,14.35
2022-11-19T07:46:55.870Z,14.43
2022-11-19T07:49:01.601Z,14.65
2022-11-19T07:51:06.529Z,15.07
2022-11-19T07:53:11.763Z,15.75
2022-11-19T07:57:30.275Z,14.55
2022-11-19T07:59:35.435Z,15.77
2022-11-19T08:01:40.719Z,15.90
2022-11-19T08:03:48.645Z,15.30
2022-11-19T08:05:57.029Z,16.30
2022-11-19T08:08:01.781Z,16.58
2022-11-19T08:10:07.969Z,16.52
2022-11-19T08:12:15.344Z,15.98
2022-11-19T08:14:20.194Z,15.52
2022-11-19T08:16:37.599Z,16.42
2022-11-19T08:18:44.757Z,15.40
2022-11-19T08:20:50.249Z,15.77
2022-11-19T08:22:55.046Z,16.65
2022-11-19T08:24:59.833Z,14.07
2022-11-19T08:27:05.499Z,15.60
2022-11-19T08:29:16.437Z,14.70
2022-11-19T08:31:21.575Z,15.23
2022-11-19T08:33:26.409Z,15.60
2022-11-19T08:35:31.223Z,15.65
2022-11-19T08:37:35.981Z,15.30
2022-11-19T08:39:40.781Z,15.07
2022-11-19T08:42:00.547Z,15.65
2022-11-19T08:44:05.976Z,15.27
2022-11-19T08:46:16.013Z,15.68
2022-11-19T08:48:20.809Z,15.82
2022-11-19T08:50:26.114Z,15.13
2022-11-19T08:54:35.586Z,15.15
2022-11-19T08:56:40.356Z,15.13
2022-11-19T08:58:46.277Z,15.35
2022-11-19T09:00:51.754Z,16.10
2022-11-19T09:02:59.250Z,16.50
2022-11-19T09:05:04.131Z,17.95
2022-11-19T09:07:08.974Z,15.95
2022-11-19T09:09:13.860Z,17.02
2022-11-19T09:11:21.226Z,16.70
2022-11-19T09:13:26.155Z,16.77
2022-11-19T09:15:31.237Z,16.40
2022-11-19T09:17:36.034Z,17.27
2022-11-19T09:19:43.387Z,17.45
2022-11-19T09:21:48.299Z,16.45
2022-11-19T09:23:53.103Z,15.95
2022-11-19T09:25:59.360Z,16.08
2022-11-19T09:28:04.735Z,16.83
2022-11-19T09:30:11.427Z,15.48
2022-11-19T09:32:25.026Z,17.70
2022-11-19T09:34:30.266Z,16.55
2022-11-19T09:36:37.741Z,17.40
2022-11-19T09:38:43.019Z,17.23
2022-11-19T09:43:04.408Z,17.30
2022-11-19T09:45:19.692Z,17.02
2022-11-19T09:47:36.886Z,18.58
2022-11-19T09:49:49.910Z,17.15
2022-11-19T09:52:01.376Z,17.08
2022-11-19T09:54:08.686Z,17.05
2022-11-19T09:56:17.285Z,17.30
2022-11-19T09:58:27.685Z,16.30
2022-11-19T10:00:34.129Z,15.90
2022-11-19T10:02:39.050Z,16.48
2022-11-19T10:04:44.030Z,16.02
2022-11-19T10:06:58.212Z,15.35
2022-11-19T10:09:18.755Z,16.13
2022-11-19T10:11:35.819Z,15.30
2022-11-19T10:13:51.442Z,15.32
2022-11-19T10:16:08.879Z,16.45
2022-11-19T10:18:23.601Z,16.05
2022-11-19T10:20:45.656Z,16.55
2022-11-19T10:22:57.958Z,15.18
2022-11-19T10:25:15.054Z,15.20
2022-11-19T10:27:25.389Z,15.60
2022-11-19T10:29:32.139Z,16.35
2022-11-19T10:31:39.666Z,15.85
2022-11-19T10:33:52.562Z,16.33
2022-11-19T10:36:00.694Z,16.98
2022-11-19T10:38:10.352Z,17.15
2022-11-19T10:40:22.606Z,15.02
2022-11-19T10:42:31.575Z,15.63
2022-11-19T10:44:42.387Z,15.45
2022-11-19T10:46:49.474Z,16.08
2022-11-19T10:48:57.760Z,16.60
2022-11-19T10:51:02.895Z,15.60
2022-11-19T10:53:16.342Z,17.50
2022-11-19T10:55:29.049Z,16.17
2022-11-19T10:57:35.718Z,15.85
2022-11-19T10:59:42.893Z,16.83
2022-11-19T11:01:51.700Z,17.50
2022-11-19T11:04:07.366Z,16.45
2022-11-19T11:08:19.363Z,17.13
2022-11-19T11:10:42.814Z,16.83
2022-11-19T11:13:00.062Z,17.20
2022-11-19T11:15:18.445Z,15.98
2022-11-19T11:17:25.930Z,17.30
2022-11-19T11:19:31.780Z,16.38
2022-11-19T11:21:39.795Z,16.20
2022-11-19T11:23:54.368Z,16.38
2022-11-19T11:26:08.353Z,15.75
2022-11-19T11:28:16.721Z,16.08
2022-11-19T11:30:22.485Z,17.08
2022-11-19T11:32:31.769Z,18.30
2022-11-19T11:34:43.558Z,17.80
2022-11-19T11:36:49.066Z,17.65
2022-11-19T11:38:56.249Z,16.50
2022-11-19T11:43:34.632Z,17.75
2022-11-19T11:45:40.242Z,17.15
2022-11-19T11:47:47.830Z,17.17
2022-11-19T11:50:00.488Z,17.45
2022-11-19T11:52:09.891Z,16.02
2022-11-19T11:54:20.456Z,17.88
2022-11-19T11:56:27.834Z,17.55
2022-11-19T11:58:34.207Z,17.35
2022-11-19T12:00:43.614Z,18.83
2022-11-19T12:03:03.555Z,19.52
2022-11-19T12:05:10.430Z,19.52
2022-11-19T12:07:28.013Z,19.23
2022-11-19T12:09:43.695Z,18.33
2022-11-19T12:11:58.579Z,18.50
2022-11-19T12:14:10.944Z,18.27
2022-11-19T12:16:25.406Z,18.02
2022-11-19T12:18:42.200Z,17.55
2022-11-19T12:20:56.878Z,15.90
2022-11-19T12:23:25.406Z,16.33
2022-11-19T12:25:38.103Z,17.50
2022-11-19T12:27:59.893Z,16.88
2022-11-19T12:30:10.744Z,15.98
2022-11-19T12:32:26.318Z,17.10
2022-11-19T12:34:57.715Z,15.93
2022-11-19T12:37:18.331Z,17.73
2022-11-19T12:39:35.664Z,16.58
2022-11-19T12:42:15.484Z,16.85
2022-11-19T12:44:34.355Z,17.75
2022-11-19T12:46:50.616Z,17.30
2022-11-19T12:49:05.963Z,17.60
2022-11-19T12:51:20.928Z,15.80
2022-11-19T12:53:35.809Z,17.40
2022-11-19T12:55:53.430Z,17.20
2022-11-19T12:58:07.538Z,16.23
2022-11-19T13:00:19.358Z,16.13
2022-11-19T13:02:31.451Z,16.25
2022-11-19T13:04:43.455Z,18.92
2022-11-19T13:06:52.785Z,17.25
2022-11-19T13:09:02.270Z,16.45
2022-11-19T13:11:15.319Z,16.55
2022-11-19T13:13:25.462Z,14.88
2022-11-19T13:15:37.986Z,15.43
2022-11-19T13:17:47.286Z,16.67
2022-11-19T13:19:56.728Z,16.75
2022-11-19T13:22:08.013Z,15.40
2022-11-19T13:24:24.548Z,15.68
2022-11-19T13:26:33.035Z,15.60
2022-11-19T13:28:45.268Z,15.60
2022-11-19T13:30:56.313Z,16.77
2022-11-19T13:33:09.580Z,17.10
2022-11-19T13:35:22.462Z,15.85
2022-11-19T13:37:42.829Z,15.95
2022-11-19T13:39:51.767Z,16.52
2022-11-19T13:42:10.482Z,16.65
2022-11-19T13:44:27.739Z,16.80
2022-11-19T13:46:40.495Z,16.58
2022-11-19T13:48:48.778Z,16.98
2022-11-19T13:50:58.433Z,17.13
2022-11-19T13:53:08.757Z,17.05
2022-11-19T13:55:32.086Z,16.45
2022-11-19T13:57:41.099Z,17.02
2022-11-19T13:59:49.223Z,17.45
2022-11-19T14:02:10.987Z,19.55
2022-11-19T14:04:33.029Z,20.85
2022-11-19T14:06:54.125Z,19.15
2022-11-19T14:09:19.169Z,19.08
2022-11-19T14:11:48.647Z,17.65
2022-11-19T14:14:33.988Z,16.05
2022-11-19T14:16:59.996Z,16.83
2022-11-19T14:19:25.787Z,20.15
2022-11-19T14:22:15.002Z,18.25
2022-11-19T14:25:08.470Z,17.40
2022-11-19T14:27:22.069Z,18.75
2022-11-19T14:30:00.776Z,17.65
2022-11-19T14:32:21.615Z,17.30
2022-11-19T14:34:34.583Z,18.52
2022-11-19T14:36:50.059Z,19.52
2022-11-19T14:38:57.568Z,18.90
2022-11-19T14:41:08.318Z,18.65
2022-11-19T14:43:39.554Z,18.08
2022-11-19T14:46:31.472Z,18.02
2022-11-19T14:48:38.523Z,18.77
2022-11-19T14:50:45.987Z,17.58
2022-11-19T14:52:55.328Z,18.50
2022-11-19T14:55:03.213Z,18.45
2022-11-19T14:57:17.548Z,20.73
2022-11-19T14:59:25.380Z,22.42
2022-11-19T15:01:30.218Z,19.20
2022-11-19T15:03:37.745Z,19.73
2022-11-19T15:05:48.339Z,18.15
2022-11-19T15:07:56.528Z,19.60
2022-11-19T15:10:20.441Z,16.05
2022-11-19T15:12:36.201Z,16.92
2022-11-19T15:17:08.580Z,17.35
2022-11-19T15:19:28.964Z,16.48
2022-11-19T15:21:52.842Z,16.48
2022-11-19T15:24:11.134Z,16.38
2022-11-19T15:26:24.367Z,16.25
2022-11-19T15:28:44.381Z,15.35
2022-11-19T15:31:05.729Z,15.20
2022-11-19T15:33:34.155Z,19.90
2022-11-19T15:36:09.630Z,16.30
2022-11-19T15:38:31.144Z,14.50
2022-11-19T15:40:37.294Z,18.02
2022-11-19T15:42:47.195Z,17.08
2022-11-19T15:44:56.667Z,17.25
2022-11-19T15:47:04.665Z,16.52
2022-11-19T15:49:17.056Z,16.05
2022-11-19T15:51:23.072Z,17.23
2022-11-19T15:53:31.218Z,15.20
2022-11-19T15:55:37.392Z,14.02
2022-11-19T15:57:48.550Z,14.93
2022-11-19T16:00:01.018Z,14.60
2022-11-19T16:02:08.019Z,14.68
2022-11-19T16:04:19.054Z,13.20
2022-11-19T16:06:26.472Z,14.43
2022-11-19T16:08:34.930Z,12.43
2022-11-19T16:10:44.390Z,13.77
2022-11-19T16:13:08.864Z,31.08
2022-11-19T16:15:38.368Z,16.50
2022-11-19T16:17:48.806Z,13.48
2022-11-19T16:20:04.843Z,13.55
2022-11-19T16:22:09.682Z,14.02
2022-11-19T16:24:32.346Z,12.65
2022-11-19T16:26:40.136Z,13.02
2022-11-19T16:28:44.939Z,14.57
2022-11-19T16:30:52.287Z,13.98
2022-11-19T16:33:00.770Z,13.23
2022-11-19T16:35:15.369Z,14.00
2022-11-19T16:37:22.755Z,14.48
2022-11-19T16:39:32.333Z,12.15
2022-11-19T16:41:50.253Z,13.75
2022-11-19T16:43:55.612Z,13.45
2022-11-19T16:46:00.927Z,14.63
2022-11-19T16:48:05.773Z,16.10
2022-11-19T16:50:28.614Z,23.25
2022-11-19T16:52:45.143Z,16.15
2022-11-19T16:54:53.709Z,14.68
2022-11-19T16:56:59.025Z,14.23
2022-11-19T17:01:09.980Z,12.85
2022-11-19T17:03:23.264Z,12.15
2022-11-19T17:05:30.972Z,17.77
2022-11-19T17:07:36.076Z,14.00
2022-11-19T17:12:10.133Z,12.18
2022-11-19T17:14:25.122Z,13.63
2022-11-19T17:16:29.937Z,14.15
2022-11-19T17:18:36.467Z,12.32
2022-11-19T17:21:03.564Z,12.25
2022-11-19T17:23:16.577Z,12.88
2022-11-19T17:25:21.408Z,12.65
2022-11-19T17:27:33.119Z,13.07
2022-11-19T17:29:38.198Z,11.63
2022-11-19T17:31:51.854Z,10.52
2022-11-19T17:33:58.510Z,13.48
2022-11-19T17:36:03.621Z,11.80
2022-11-19T17:38:14.445Z,11.90
2022-11-19T17:40:19.331Z,11.60
2022-11-19T17:42:36.959Z,12.20
2022-11-19T17:44:44.613Z,12.57
2022-11-19T17:46:49.386Z,12.02
2022-11-19T17:48:55.464Z,11.60
2022-11-19T17:51:00.463Z,12.98
2022-11-19T17:53:05.275Z,13.70
2022-11-19T17:55:18.961Z,13.32
2022-11-19T17:57:23.893Z,12.00
2022-11-19T17:59:29.646Z,11.90
2022-11-19T18:01:37.611Z,11.77
2022-11-19T18:03:44.963Z,10.82
2022-11-19T18:05:51.704Z,10.63
2022-11-19T18:07:56.600Z,10.93
2022-11-19T18:10:01.380Z,12.32
2022-11-19T18:12:06.838Z,12.52
2022-11-19T18:14:12.992Z,12.25
2022-11-19T18:16:19.712Z,13.95
2022-11-19T18:18:27.207Z,14.10
2022-11-19T18:20:32.024Z,13.80
2022-11-19T18:22:36.868Z,15.50
2022-11-19T18:24:41.902Z,14.30
2022-11-19T18:26:46.808Z,13.70
2022-11-19T18:28:51.612Z,12.90
2022-11-19T18:30:56.600Z,13.07
2022-11-19T18:33:02.427Z,16.35
2022-11-19T18:35:16.727Z,22.83
2022-11-19T18:37:21.530Z,17.35
2022-11-19T18:39:26.350Z,13.57
2022-11-19T18:41:32.152Z,14.43
2022-11-19T18:43:49.380Z,14.07
2022-11-19T18:45:54.157Z,13.32
2022-11-19T18:47:59.067Z,12.43
2022-11-19T18:50:03.884Z,12.93
2022-11-19T18:52:15.128Z,12.45
2022-11-19T18:54:20.206Z,13.57
2022-11-19T18:58:29.935Z,13.00
2022-11-19T19:00:34.712Z,13.63
2022-11-19T19:02:39.601Z,12.38
2022-11-19T19:04:49.688Z,12.15
2022-11-19T19:06:56.111Z,13.30
2022-11-19T19:11:22.464Z,12.57
2022-11-19T19:13:27.349Z,13.55
2022-11-19T19:15:32.125Z,13.05
2022-11-19T19:17:37.013Z,14.85
2022-11-19T19:19:41.910Z,14.77
2022-11-19T19:21:46.755Z,13.32
2022-11-19T19:23:52.102Z,12.80
2022-11-19T19:26:00.630Z,13.20
2022-11-19T19:28:05.411Z,14.32
2022-11-19T19:30:12.161Z,13.98
2022-11-19T19:32:19.764Z,13.65
2022-11-19T19:34:24.575Z,14.98
2022-11-19T19:36:30.412Z,14.00
2022-11-19T19:38:35.244Z,14.07
2022-11-19T19:40:40.010Z,13.15
2022-11-19T19:42:47.595Z,14.40
2022-11-19T19:44:52.463Z,13.70
2022-11-19T19:46:57.272Z,14.55
2022-11-19T19:49:02.610Z,13.15
2022-11-19T19:51:07.611Z,14.35
2022-11-19T19:53:12.743Z,14.15
2022-11-19T19:57:22.434Z,15.05
2022-11-19T19:59:29.800Z,14.55
2022-11-19T20:01:36.344Z,16.27
2022-11-19T20:03:41.923Z,15.38
2022-11-19T20:05:51.745Z,14.85
2022-11-19T20:07:56.567Z,16.48
2022-11-19T20:10:01.430Z,14.23
2022-11-19T20:12:06.450Z,14.35
2022-11-19T20:14:12.601Z,15.32
2022-11-19T20:16:22.461Z,15.75
2022-11-19T20:18:28.218Z,15.88
2022-11-19T20:20:32.992Z,18.17
2022-11-19T20:22:37.799Z,18.60
2022-11-19T20:24:45.459Z,17.45
2022-11-19T20:26:50.340Z,17.35
2022-11-19T20:28:58.026Z,15.63
2022-11-19T20:31:06.631Z,15.90
2022-11-19T20:33:14.053Z,15.70
2022-11-19T20:35:19.268Z,16.90
2022-11-19T20:39:28.635Z,15.85
2022-11-19T20:41:46.198Z,16.15
2022-11-19T20:44:03.541Z,16.38
2022-11-19T20:46:16.252Z,20.02
2022-11-19T20:48:23.692Z,18.63
2022-11-19T20:50:28.555Z,20.35
2022-11-19T20:52:33.348Z,19.23
2022-11-19T20:54:38.281Z,16.67
2022-11-19T20:56:44.104Z,16.13
2022-11-19T20:58:48.925Z,16.50
2022-11-19T21:00:53.805Z,17.40
2022-11-19T21:02:58.595Z,17.77
2022-11-19T21:05:06.138Z,15.70
2022-11-19T21:07:11.043Z,16.10
2022-11-19T21:09:16.046Z,16.33
2022-11-19T21:11:20.968Z,17.73
2022-11-19T21:13:25.780Z,17.67
2022-11-19T21:15:31.267Z,19.40
2022-11-19T21:17:36.060Z,24.63
2022-11-19T21:19:40.854Z,26.83
2022-11-19T21:21:50.943Z,20.73
2022-11-19T21:23:56.689Z,18.52
2022-11-19T21:26:04.854Z,20.35
2022-11-19T21:28:09.784Z,19.13
2022-11-19T21:30:15.584Z,19.67
2022-11-19T21:32:20.379Z,19.45
2022-11-19T21:34:25.205Z,19.42
2022-11-19T21:36:30.202Z,17.52
2022-11-19T21:38:37.914Z,17.85
2022-11-19T21:40:43.181Z,18.98
2022-11-19T21:44:52.546Z,18.05
2022-11-19T21:46:57.414Z,19.08
2022-11-19T21:49:02.475Z,19.13
2022-11-19T21:51:09.225Z,19.05
2022-11-19T21:53:15.044Z,18.48
2022-11-19T21:55:23.147Z,18.70
2022-11-19T21:57:28.004Z,18.13
2022-11-19T21:59:32.869Z,17.88
2022-11-19T22:01:37.786Z,19.08
2022-11-19T22:03:42.772Z,18.02
2022-11-19T22:07:52.700Z,18.45
2022-11-19T22:12:04.638Z,18.70
2022-11-19T22:14:11.772Z,18.38
2022-11-19T22:16:19.677Z,18.65
2022-11-19T22:18:24.500Z,17.95
2022-11-19T22:20:29.272Z,17.65
2022-11-19T22:22:34.128Z,16.95
2022-11-19T22:24:38.972Z,17.55
2022-11-19T22:26:43.907Z,17.30
2022-11-19T22:28:51.355Z,17.20
2022-11-19T22:30:56.660Z,17.70
2022-11-19T22:35:06.487Z,18.00
2022-11-19T22:37:11.648Z,17.17
2022-11-19T22:41:25.063Z,17.83
2022-11-19T22:43:33.135Z,18.20
2022-11-19T22:45:40.512Z,16.08
2022-11-19T22:47:48.166Z,17.10
2022-11-19T22:49:52.944Z,18.40
2022-11-19T22:51:57.849Z,17.23
2022-11-19T22:54:02.653Z,17.30
2022-11-19T22:56:09.456Z,17.05
2022-11-19T22:58:14.242Z,17.00
2022-11-19T23:00:43.644Z,18.13
2022-11-19T23:02:48.422Z,16.98
2022-11-19T23:04:53.265Z,17.27
2022-11-19T23:06:58.403Z,19.02
2022-11-19T23:09:03.280Z,18.85
2022-11-19T23:11:09.654Z,17.92
2022-11-19T23:13:28.924Z,18.13
2022-11-19T23:15:33.687Z,16.23
2022-11-19T23:17:44.929Z,16.63
2022-11-19T23:19:49.723Z,16.70
2022-11-19T23:21:54.609Z,17.05
2022-11-19T23:24:01.180Z,18.00
2022-11-19T23:26:07.446Z,16.55
2022-11-19T23:28:15.279Z,16.17
2022-11-19T23:30:20.319Z,16.08
2022-11-19T23:34:32.352Z,18.27
2022-11-19T23:36:38.656Z,17.50
2022-11-19T23:38:43.568Z,18.85
2022-11-19T23:40:48.411Z,18.77
2022-11-19T23:42:53.220Z,16.83
2022-11-19T23:44:58.147Z,16.58
2022-11-19T23:47:03.508Z,17.60
2022-11-19T23:49:08.761Z,18.17
2022-11-19T23:51:17.853Z,17.27
2022-11-19T23:53:22.610Z,17.63
2022-11-19T23:55:27.371Z,13.80
2022-11-19T23:57:32.242Z,16.42
2022-11-19T23:59:38.350Z,17.40
